createdAt,value
2016-08-12T00:00:48.545Z,974.5
2016-08-12T00:01:48.513Z,974.45
2016-08-12T00:02:48.481Z,974.47
2016-08-12T00:03:48.448Z,974.49
2016-08-12T00:04:48.418Z,974.47
2016-08-12T00:05:48.384Z,974.44
2016-08-12T00:06:48.351Z,974.49
2016-08-12T00:07:48.319Z,974.44
2016-08-12T00:08:48.284Z,974.43
2016-08-12T00:09:48.251Z,974.42
2016-08-12T00:10:48.220Z,974.35
2016-08-12T00:11:48.187Z,974.37
2016-08-12T00:12:48.156Z,974.35
2016-08-12T00:13:48.119Z,974.38
2016-08-12T00:14:48.087Z,974.41
2016-08-12T00:15:48.054Z,974.42
2016-08-12T00:16:48.024Z,974.45
2016-08-12T00:18:47.958Z,974.5
2016-08-12T00:20:47.892Z,974.49
2016-08-12T00:21:47.859Z,974.5
2016-08-12T00:22:47.827Z,974.47
2016-08-12T00:23:47.792Z,974.47
2016-08-12T00:24:47.769Z,974.43
2016-08-12T00:25:47.733Z,974.43
2016-08-12T00:26:47.696Z,974.36
2016-08-12T00:27:47.664Z,974.34
2016-08-12T00:28:47.631Z,974.39
2016-08-12T00:29:47.597Z,974.37
2016-08-12T00:30:47.565Z,974.39
2016-08-12T00:31:47.533Z,974.34
2016-08-12T00:32:47.500Z,974.34
2016-08-12T00:33:47.466Z,974.33
2016-08-12T00:34:47.436Z,974.33
2016-08-12T00:35:47.402Z,974.29
2016-08-12T00:36:47.369Z,974.33
2016-08-12T00:37:47.335Z,974.31
2016-08-12T00:38:47.304Z,974.3
2016-08-12T00:39:47.278Z,974.26
2016-08-12T00:40:47.237Z,974.26
2016-08-12T00:41:47.206Z,974.21
2016-08-12T00:42:47.176Z,974.24
2016-08-12T00:43:47.138Z,974.26
2016-08-12T00:44:47.108Z,974.28
2016-08-12T00:45:47.074Z,974.32
2016-08-12T00:46:47.042Z,974.35
2016-08-12T00:47:47.010Z,974.3
2016-08-12T00:48:46.979Z,974.29
2016-08-12T00:49:46.943Z,974.34
2016-08-12T00:50:46.912Z,974.32
2016-08-12T00:51:46.878Z,974.3
2016-08-12T00:52:46.848Z,974.33
2016-08-12T00:53:46.811Z,974.33
2016-08-12T00:54:46.779Z,974.37
2016-08-12T00:55:46.746Z,974.36
2016-08-12T00:56:46.713Z,974.35
2016-08-12T00:57:46.679Z,974.38
2016-08-12T00:58:46.647Z,974.39
2016-08-12T00:59:46.616Z,974.39
2016-08-12T01:00:46.583Z,974.44
2016-08-12T01:01:46.550Z,974.41
2016-08-12T01:02:46.517Z,974.44
2016-08-12T01:03:46.488Z,974.46
2016-08-12T01:04:46.451Z,974.47
2016-08-12T01:05:46.419Z,974.43
2016-08-12T01:06:46.387Z,974.48
2016-08-12T01:07:46.354Z,974.46
2016-08-12T01:08:46.320Z,974.43
2016-08-12T01:09:46.289Z,974.48
2016-08-12T01:10:46.255Z,974.5
2016-08-12T01:11:46.221Z,974.53
2016-08-12T01:12:46.194Z,974.5
2016-08-12T01:13:46.156Z,974.54
2016-08-12T01:14:46.122Z,974.54
2016-08-12T01:15:46.091Z,974.54
2016-08-12T01:16:46.057Z,974.59
2016-08-12T01:17:46.026Z,974.59
2016-08-12T01:18:45.992Z,974.6
2016-08-12T01:19:45.959Z,974.56
2016-08-12T01:20:45.926Z,974.57
2016-08-12T01:21:45.894Z,974.58
2016-08-12T01:22:45.862Z,974.56
2016-08-12T01:23:45.829Z,974.53
2016-08-12T01:24:45.796Z,974.54
2016-08-12T01:25:45.763Z,974.55
2016-08-12T01:26:45.736Z,974.52
2016-08-12T01:27:45.699Z,974.52
2016-08-12T01:28:45.668Z,974.49
2016-08-12T01:29:45.631Z,974.49
2016-08-12T01:30:45.599Z,974.48
2016-08-12T01:31:45.567Z,974.44
2016-08-12T01:32:45.536Z,974.43
2016-08-12T01:33:45.499Z,974.43
2016-08-12T01:34:45.467Z,974.43
2016-08-12T01:35:45.437Z,974.45
2016-08-12T01:36:45.403Z,974.41
2016-08-12T01:37:45.378Z,974.4
2016-08-12T01:38:45.336Z,974.39
2016-08-12T01:39:45.311Z,974.38
2016-08-12T01:40:45.271Z,974.41
2016-08-12T01:41:45.242Z,974.39
2016-08-12T01:42:45.205Z,974.4
2016-08-12T01:43:45.174Z,974.38
2016-08-12T01:44:45.140Z,974.41
2016-08-12T01:45:45.107Z,974.37
2016-08-12T01:46:45.074Z,974.38
2016-08-12T01:47:45.043Z,974.36
2016-08-12T01:48:45.008Z,974.41
2016-08-12T01:49:44.975Z,974.4
2016-08-12T01:50:44.945Z,974.39
2016-08-12T01:51:44.909Z,974.38
2016-08-12T01:52:44.878Z,974.41
2016-08-12T01:53:44.844Z,974.42
2016-08-12T01:54:44.811Z,974.41
2016-08-12T01:55:44.784Z,974.41
2016-08-12T01:56:44.748Z,974.44
2016-08-12T01:57:44.713Z,974.44
2016-08-12T01:58:44.681Z,974.36
2016-08-12T01:59:44.648Z,974.43
2016-08-12T02:00:44.618Z,974.43
2016-08-12T02:01:44.583Z,974.4
2016-08-12T02:02:44.549Z,974.36
2016-08-12T02:03:44.518Z,974.4
2016-08-12T02:04:44.483Z,974.4
2016-08-12T02:05:44.451Z,974.35
2016-08-12T02:06:44.422Z,974.38
2016-08-12T02:07:44.386Z,974.38
2016-08-12T02:08:44.351Z,974.36
2016-08-12T02:09:44.320Z,974.37
2016-08-12T02:10:44.284Z,974.36
2016-08-12T02:11:44.253Z,974.33
2016-08-12T02:12:44.220Z,974.34
2016-08-12T02:13:44.187Z,974.34
2016-08-12T02:14:44.154Z,974.34
2016-08-12T02:15:44.121Z,974.38
2016-08-12T02:16:44.089Z,974.36
2016-08-12T02:17:44.056Z,974.41
2016-08-12T02:18:44.022Z,974.41
2016-08-12T02:19:43.990Z,974.45
2016-08-12T02:20:43.956Z,974.48
2016-08-12T02:21:43.923Z,974.45
2016-08-12T02:22:43.890Z,974.57
2016-08-12T02:23:43.861Z,974.57
2016-08-12T02:24:43.824Z,974.57
2016-08-12T02:25:43.790Z,974.56
2016-08-12T02:26:43.759Z,974.64
2016-08-12T02:27:43.726Z,974.63
2016-08-12T02:28:43.692Z,974.72
2016-08-12T02:29:43.659Z,974.7
2016-08-12T02:30:43.628Z,974.73
2016-08-12T02:31:43.593Z,974.72
2016-08-12T02:32:43.561Z,974.74
2016-08-12T02:33:43.528Z,974.74
2016-08-12T02:34:43.495Z,974.79
2016-08-12T02:35:43.462Z,974.78
2016-08-12T02:36:43.429Z,974.77
2016-08-12T02:37:43.398Z,974.81
2016-08-12T02:38:43.364Z,974.85
2016-08-12T02:39:43.328Z,974.83
2016-08-12T02:40:43.297Z,974.79
2016-08-12T02:41:43.265Z,974.79
2016-08-12T02:42:43.231Z,974.82
2016-08-12T02:43:43.201Z,974.8
2016-08-12T02:44:43.170Z,974.82
2016-08-12T02:45:43.135Z,974.83
2016-08-12T02:46:43.099Z,974.85
2016-08-12T02:47:43.067Z,974.84
2016-08-12T02:48:43.034Z,974.84
2016-08-12T02:49:43.001Z,974.84
2016-08-12T02:50:42.970Z,974.85
2016-08-12T02:51:42.934Z,974.86
2016-08-12T02:52:42.903Z,974.85
2016-08-12T02:53:42.867Z,974.86
2016-08-12T02:54:42.835Z,974.86
2016-08-12T02:55:42.803Z,974.83
2016-08-12T02:56:42.770Z,974.83
2016-08-12T02:57:42.737Z,974.76
2016-08-12T02:58:42.704Z,974.83
2016-08-12T02:59:42.671Z,974.85
2016-08-12T03:00:42.640Z,974.85
2016-08-12T03:01:42.608Z,974.93
2016-08-12T03:02:42.572Z,974.93
2016-08-12T03:03:42.541Z,974.9
2016-08-12T03:04:42.505Z,974.89
2016-08-12T03:05:42.474Z,974.92
2016-08-12T03:06:42.440Z,974.96
2016-08-12T03:07:42.409Z,974.97
2016-08-12T03:08:42.375Z,974.93
2016-08-12T03:09:42.342Z,974.98
2016-08-12T03:10:42.311Z,974.97
2016-08-12T03:11:42.278Z,974.93
2016-08-12T03:12:42.244Z,974.97
2016-08-12T03:13:42.210Z,974.94
2016-08-12T03:14:42.178Z,974.95
2016-08-12T03:15:42.146Z,974.95
2016-08-12T03:16:42.112Z,974.92
2016-08-12T03:17:42.081Z,974.96
2016-08-12T03:19:42.012Z,974.94
2016-08-12T03:20:41.981Z,974.99
2016-08-12T03:21:41.950Z,974.94
2016-08-12T03:22:41.917Z,975.01
2016-08-12T03:23:41.880Z,974.98
2016-08-12T03:24:41.849Z,974.99
2016-08-12T03:25:41.819Z,975.02
2016-08-12T03:26:41.783Z,975.02
2016-08-12T03:27:41.749Z,975.03
2016-08-12T03:28:41.731Z,975.08
2016-08-12T03:29:41.692Z,975.06
2016-08-12T03:30:41.651Z,975.03
2016-08-12T03:31:41.619Z,975.09
2016-08-12T03:32:41.586Z,975.07
2016-08-12T03:33:41.551Z,975.1
2016-08-12T03:34:41.527Z,975.08
2016-08-12T03:35:41.487Z,975.05
2016-08-12T03:36:41.455Z,975.08
2016-08-12T03:37:41.423Z,975.09
2016-08-12T03:38:41.388Z,975.11
2016-08-12T03:39:41.356Z,975.1
2016-08-12T03:40:41.323Z,975.07
2016-08-12T03:41:41.289Z,975.09
2016-08-12T03:42:41.256Z,975.07
2016-08-12T03:43:41.222Z,975.06
2016-08-12T03:44:41.190Z,975.09
2016-08-12T03:45:41.157Z,975.1
2016-08-12T03:46:41.123Z,975.09
2016-08-12T03:47:41.091Z,975.1
2016-08-12T03:48:41.056Z,975.08
2016-08-12T03:49:41.025Z,975.1
2016-08-12T03:50:40.995Z,975.1
2016-08-12T03:51:40.960Z,975.09
2016-08-12T03:52:40.925Z,975.11
2016-08-12T03:53:40.892Z,975.07
2016-08-12T03:54:40.860Z,975.07
2016-08-12T03:55:40.826Z,975.05
2016-08-12T03:56:40.792Z,975
2016-08-12T03:57:40.761Z,975.01
2016-08-12T03:58:40.730Z,974.99
2016-08-12T03:59:40.695Z,975
2016-08-12T04:00:40.664Z,974.99
2016-08-12T04:01:40.630Z,974.98
2016-08-12T04:02:40.597Z,975.02
2016-08-12T04:03:40.563Z,975.04
2016-08-12T04:04:40.531Z,975.04
2016-08-12T04:05:40.497Z,975.07
2016-08-12T04:06:40.465Z,975.05
2016-08-12T04:07:40.432Z,975.06
2016-08-12T04:08:40.397Z,975.05
2016-08-12T04:09:40.364Z,975.05
2016-08-12T04:10:40.332Z,975.08
2016-08-12T04:11:40.302Z,975.12
2016-08-12T04:12:40.265Z,975.13
2016-08-12T04:13:40.237Z,975.17
2016-08-12T04:14:40.199Z,975.17
2016-08-12T04:15:40.166Z,975.16
2016-08-12T04:16:40.134Z,975.16
2016-08-12T04:17:40.101Z,975.2
2016-08-12T04:18:40.067Z,975.21
2016-08-12T04:19:40.035Z,975.21
2016-08-12T04:20:40.003Z,975.19
2016-08-12T04:21:39.971Z,975.25
2016-08-12T04:22:39.935Z,975.25
2016-08-12T04:23:39.904Z,975.25
2016-08-12T04:24:39.871Z,975.22
2016-08-12T04:25:39.837Z,975.28
2016-08-12T04:26:39.804Z,975.27
2016-08-12T04:27:39.773Z,975.31
2016-08-12T04:28:39.737Z,975.27
2016-08-12T04:29:39.706Z,975.32
2016-08-12T04:30:39.674Z,975.32
2016-08-12T04:31:39.642Z,975.3
2016-08-12T04:32:39.606Z,975.32
2016-08-12T04:33:39.574Z,975.3
2016-08-12T04:34:39.542Z,975.3
2016-08-12T04:35:39.510Z,975.36
2016-08-12T04:36:39.478Z,975.34
2016-08-12T04:37:39.443Z,975.37
2016-08-12T04:38:39.412Z,975.43
2016-08-12T04:39:39.376Z,975.42
2016-08-12T04:40:39.349Z,975.44
2016-08-12T04:41:39.316Z,975.46
2016-08-12T04:42:39.281Z,975.49
2016-08-12T04:43:39.245Z,975.43
2016-08-12T04:44:39.214Z,975.48
2016-08-12T04:45:39.186Z,975.52
2016-08-12T04:46:39.149Z,975.5
2016-08-12T04:47:39.114Z,975.51
2016-08-12T04:48:39.081Z,975.55
2016-08-12T04:49:39.048Z,975.58
2016-08-12T04:50:39.016Z,975.54
2016-08-12T04:51:38.983Z,975.59
2016-08-12T04:52:38.952Z,975.62
2016-08-12T04:53:38.919Z,975.55
2016-08-12T04:54:38.886Z,975.56
2016-08-12T04:55:38.854Z,975.58
2016-08-12T04:56:38.821Z,975.61
2016-08-12T04:57:38.787Z,975.57
2016-08-12T04:58:38.754Z,975.58
2016-08-12T04:59:38.723Z,975.58
2016-08-12T05:00:38.694Z,975.62
2016-08-12T05:01:38.660Z,975.66
2016-08-12T05:02:38.624Z,975.6
2016-08-12T05:03:38.594Z,975.64
2016-08-12T05:04:38.560Z,975.64
2016-08-12T05:05:38.525Z,975.69
2016-08-12T05:06:38.494Z,975.74
2016-08-12T05:07:38.461Z,975.72
2016-08-12T05:08:38.430Z,975.75
2016-08-12T05:09:38.395Z,975.76
2016-08-12T05:10:38.365Z,975.73
2016-08-12T05:11:38.332Z,975.74
2016-08-12T05:12:38.302Z,975.76
2016-08-12T05:13:38.265Z,975.77
2016-08-12T05:14:38.234Z,975.75
2016-08-12T05:15:38.200Z,975.81
2016-08-12T05:16:38.167Z,975.77
2016-08-12T05:17:38.135Z,975.77
2016-08-12T05:18:38.103Z,975.8
2016-08-12T05:19:38.070Z,975.78
2016-08-12T05:20:38.037Z,975.77
2016-08-12T05:21:38.011Z,975.75
2016-08-12T05:22:37.973Z,975.71
2016-08-12T05:23:37.948Z,975.74
2016-08-12T05:24:37.909Z,975.78
2016-08-12T05:25:37.876Z,975.75
2016-08-12T05:26:37.843Z,975.71
2016-08-12T05:27:37.810Z,975.75
2016-08-12T05:28:37.777Z,975.77
2016-08-12T05:29:37.744Z,975.83
2016-08-12T05:30:37.715Z,975.82
2016-08-12T05:31:37.679Z,975.87
2016-08-12T05:32:37.647Z,975.81
2016-08-12T05:33:37.620Z,975.84
2016-08-12T05:34:37.583Z,975.85
2016-08-12T05:35:37.551Z,975.81
2016-08-12T05:36:37.517Z,975.89
2016-08-12T05:37:37.486Z,975.87
2016-08-12T05:38:37.453Z,975.85
2016-08-12T05:39:37.417Z,975.87
2016-08-12T05:40:37.383Z,975.95
2016-08-12T05:41:37.362Z,975.96
2016-08-12T05:42:37.323Z,975.89
2016-08-12T05:43:37.290Z,975.88
2016-08-12T05:44:37.257Z,975.88
2016-08-12T05:45:37.223Z,975.92
2016-08-12T05:46:37.191Z,975.92
2016-08-12T05:47:37.160Z,975.93
2016-08-12T05:48:37.129Z,975.96
2016-08-12T05:49:37.093Z,975.94
2016-08-12T05:50:37.060Z,975.93
2016-08-12T05:51:37.030Z,975.94
2016-08-12T05:52:36.995Z,975.96
2016-08-12T05:53:36.963Z,975.99
2016-08-12T05:54:36.932Z,975.99
2016-08-12T05:55:36.904Z,976.08
2016-08-12T05:56:36.864Z,976.09
2016-08-12T05:57:36.833Z,976.09
2016-08-12T05:58:36.800Z,976.08
2016-08-12T05:59:36.767Z,976.09
2016-08-12T06:00:36.735Z,976.09
2016-08-12T06:01:36.702Z,976.12
2016-08-12T06:02:36.669Z,976.11
2016-08-12T06:03:36.635Z,976.16
2016-08-12T06:04:36.603Z,976.18
2016-08-12T06:05:36.572Z,976.2
2016-08-12T06:06:36.539Z,976.2
2016-08-12T06:07:36.507Z,976.23
2016-08-12T06:08:36.473Z,976.27
2016-08-12T06:09:36.443Z,976.24
2016-08-12T06:10:36.409Z,976.29
2016-08-12T06:11:36.375Z,976.28
2016-08-12T06:12:36.345Z,976.32
2016-08-12T06:13:36.312Z,976.35
2016-08-12T06:14:36.277Z,976.37
2016-08-12T06:15:36.245Z,976.37
2016-08-12T06:16:36.212Z,976.38
2016-08-12T06:17:36.180Z,976.38
2016-08-12T06:18:36.149Z,976.37
2016-08-12T06:19:36.115Z,976.42
2016-08-12T06:20:36.083Z,976.43
2016-08-12T06:21:36.055Z,976.4
2016-08-12T06:22:36.017Z,976.41
2016-08-12T06:23:35.986Z,976.45
2016-08-12T06:24:35.953Z,976.43
2016-08-12T06:25:35.923Z,976.46
2016-08-12T06:26:35.889Z,976.46
2016-08-12T06:27:35.857Z,976.45
2016-08-12T06:28:35.822Z,976.43
2016-08-12T06:29:35.791Z,976.47
2016-08-12T06:30:35.758Z,976.47
2016-08-12T06:31:35.728Z,976.5
2016-08-12T06:32:35.694Z,976.51
2016-08-12T06:33:35.659Z,976.52
2016-08-12T06:34:35.627Z,976.56
2016-08-12T06:35:35.595Z,976.54
2016-08-12T06:36:35.561Z,976.53
2016-08-12T06:37:35.531Z,976.58
2016-08-12T06:38:35.499Z,976.53
2016-08-12T06:39:35.465Z,976.55
2016-08-12T06:40:35.434Z,976.55
2016-08-12T06:41:35.401Z,976.53
2016-08-12T06:42:35.368Z,976.52
2016-08-12T06:43:35.336Z,976.54
2016-08-12T06:44:35.303Z,976.54
2016-08-12T06:45:35.273Z,976.56
2016-08-12T06:46:35.240Z,976.51
2016-08-12T06:47:35.208Z,976.5
2016-08-12T06:48:35.173Z,976.55
2016-08-12T06:49:35.141Z,976.53
2016-08-12T06:50:35.113Z,976.52
2016-08-12T06:51:35.077Z,976.53
2016-08-12T06:52:35.046Z,976.55
2016-08-12T06:53:35.013Z,976.54
2016-08-12T06:54:34.981Z,976.54
2016-08-12T06:55:34.948Z,976.55
2016-08-12T06:56:34.918Z,976.59
2016-08-12T06:57:34.886Z,976.58
2016-08-12T06:58:34.853Z,976.59
2016-08-12T06:59:34.821Z,976.57
2016-08-12T07:00:34.789Z,976.59
2016-08-12T07:01:34.760Z,976.57
2016-08-12T07:02:34.725Z,976.6
2016-08-12T07:03:34.693Z,976.6
2016-08-12T07:04:34.660Z,976.57
2016-08-12T07:05:34.635Z,976.58
2016-08-12T07:06:34.598Z,976.6
2016-08-12T07:07:34.570Z,976.6
2016-08-12T07:08:34.534Z,976.61
2016-08-12T07:09:34.500Z,976.6
2016-08-12T07:10:34.468Z,976.63
2016-08-12T07:11:34.439Z,976.62
2016-08-12T07:12:34.406Z,976.63
2016-08-12T07:13:34.374Z,976.61
2016-08-12T07:14:34.342Z,976.67
2016-08-12T07:15:34.309Z,976.67
2016-08-12T07:16:34.277Z,976.69
2016-08-12T07:17:34.245Z,976.7
2016-08-12T07:18:34.214Z,976.67
2016-08-12T07:19:34.180Z,976.7
2016-08-12T07:20:34.150Z,976.74
2016-08-12T07:21:34.118Z,976.76
2016-08-12T07:22:34.086Z,976.78
2016-08-12T07:23:34.053Z,976.76
2016-08-12T07:24:34.022Z,976.8
2016-08-12T07:25:33.991Z,976.81
2016-08-12T07:26:33.956Z,976.82
2016-08-12T07:27:33.926Z,976.85
2016-08-12T07:28:33.895Z,976.88
2016-08-12T07:29:33.866Z,976.84
2016-08-12T07:30:33.829Z,976.87
2016-08-12T07:31:33.797Z,976.87
2016-08-12T07:32:33.765Z,976.85
2016-08-12T07:33:33.734Z,976.86
2016-08-12T07:34:33.712Z,976.89
2016-08-12T07:35:33.670Z,976.89
2016-08-12T07:36:33.640Z,976.88
2016-08-12T07:37:33.611Z,976.91
2016-08-12T07:38:33.574Z,976.92
2016-08-12T07:39:33.542Z,976.89
2016-08-12T07:40:33.511Z,976.9
2016-08-12T07:41:33.478Z,976.95
2016-08-12T07:42:33.446Z,976.86
2016-08-12T07:43:33.414Z,976.92
2016-08-12T07:44:33.382Z,976.91
2016-08-12T07:45:33.350Z,976.89
2016-08-12T07:46:33.319Z,976.84
2016-08-12T07:47:33.287Z,976.89
2016-08-12T07:48:33.254Z,976.84
2016-08-12T07:50:33.189Z,976.78
2016-08-12T07:51:33.158Z,976.78
2016-08-12T07:52:33.131Z,976.82
2016-08-12T07:53:33.095Z,976.82
2016-08-12T07:54:33.062Z,976.87
2016-08-12T07:55:33.030Z,976.85
2016-08-12T07:56:32.999Z,976.89
2016-08-12T07:57:32.966Z,976.89
2016-08-12T07:58:32.936Z,976.93
2016-08-12T07:59:32.903Z,976.91
2016-08-12T08:00:32.874Z,976.95
2016-08-12T08:01:32.841Z,976.92
2016-08-12T08:02:32.811Z,976.94
2016-08-12T08:03:32.778Z,976.95
2016-08-12T08:05:32.714Z,976.95
2016-08-12T08:06:32.692Z,976.93
2016-08-12T08:07:32.654Z,976.94
2016-08-12T08:08:32.620Z,976.96
2016-08-12T08:09:32.589Z,976.9
2016-08-12T08:10:32.559Z,976.95
2016-08-12T08:11:32.524Z,976.98
2016-08-12T08:12:32.495Z,976.98
2016-08-12T08:13:32.465Z,976.95
2016-08-12T08:14:32.432Z,976.95
2016-08-12T08:15:32.401Z,976.95
2016-08-12T08:16:32.372Z,976.93
2016-08-12T08:17:32.338Z,976.93
2016-08-12T08:18:32.307Z,976.93
2016-08-12T08:20:32.246Z,976.97
2016-08-12T08:21:32.215Z,976.97
2016-08-12T08:22:32.186Z,977.04
2016-08-12T08:23:32.153Z,977
2016-08-12T08:24:32.125Z,977.03
2016-08-12T08:25:32.092Z,977.02
2016-08-12T08:26:32.067Z,976.98
2016-08-12T08:27:32.032Z,976.98
2016-08-12T08:28:32.001Z,977.01
2016-08-12T08:29:31.970Z,977.04
2016-08-12T08:30:31.940Z,977.02
2016-08-12T08:31:31.909Z,977
2016-08-12T08:32:31.880Z,977.02
2016-08-12T08:33:31.849Z,977
2016-08-12T08:34:31.818Z,976.97
2016-08-12T08:35:31.788Z,976.99
2016-08-12T08:36:31.758Z,976.95
2016-08-12T08:37:31.729Z,977
2016-08-12T08:38:31.699Z,976.98
2016-08-12T08:39:31.666Z,977.03
2016-08-12T08:40:31.636Z,976.97
2016-08-12T08:41:31.605Z,977
2016-08-12T08:42:31.577Z,977
2016-08-12T08:43:31.547Z,976.97
2016-08-12T08:44:31.516Z,977.01
2016-08-12T08:45:31.487Z,976.97
2016-08-12T08:46:31.459Z,977
2016-08-12T08:47:31.427Z,976.98
2016-08-12T08:48:31.397Z,976.95
2016-08-12T08:49:31.369Z,976.97
2016-08-12T08:50:31.341Z,977.01
2016-08-12T08:51:31.309Z,977
2016-08-12T08:52:31.280Z,977.01
2016-08-12T08:53:31.253Z,976.97
2016-08-12T08:54:31.222Z,977.02
2016-08-12T08:55:31.192Z,977
2016-08-12T08:56:31.165Z,977.01
2016-08-12T08:57:31.135Z,977
2016-08-12T08:58:31.107Z,977.04
2016-08-12T08:59:31.075Z,977.01
2016-08-12T09:00:31.045Z,977.01
2016-08-12T09:01:31.017Z,977.04
2016-08-12T09:02:30.988Z,977.05
2016-08-12T09:03:30.959Z,977.05
2016-08-12T09:04:30.930Z,977.05
2016-08-12T09:05:30.902Z,977.05
2016-08-12T09:06:30.873Z,977.05
2016-08-12T09:07:30.842Z,977.03
2016-08-12T09:08:30.819Z,977.03
2016-08-12T09:09:30.792Z,977.01
2016-08-12T09:10:30.757Z,977.03
2016-08-12T09:11:30.729Z,977.04
2016-08-12T09:12:30.702Z,977.05
2016-08-12T09:13:30.670Z,977.01
2016-08-12T09:14:30.641Z,976.98
2016-08-12T09:15:30.613Z,977.01
2016-08-12T09:16:30.582Z,977
2016-08-12T09:17:30.553Z,976.99
2016-08-12T09:18:30.526Z,977
2016-08-12T09:19:30.495Z,977
2016-08-12T09:20:30.467Z,976.99
2016-08-12T09:21:30.438Z,976.96
2016-08-12T09:22:30.408Z,976.99
2016-08-12T09:23:30.379Z,976.99
2016-08-12T09:24:30.350Z,977.02
2016-08-12T09:25:30.319Z,977
2016-08-12T09:26:30.292Z,977.02
2016-08-12T09:27:30.262Z,977.02
2016-08-12T09:28:30.232Z,977.01
2016-08-12T09:29:30.215Z,977.03
2016-08-12T09:30:30.223Z,977.03
2016-08-12T09:31:30.143Z,977.07
2016-08-12T09:32:30.115Z,977.06
2016-08-12T09:33:30.086Z,977.06
2016-08-12T09:34:30.057Z,977.08
2016-08-12T09:35:30.026Z,976.99
2016-08-12T09:36:29.996Z,977
2016-08-12T09:37:29.968Z,977.01
2016-08-12T09:38:29.942Z,977.08
2016-08-12T09:39:29.912Z,977.09
2016-08-12T09:40:29.884Z,977.07
2016-08-12T09:41:29.852Z,977.03
2016-08-12T09:42:29.825Z,977.09
2016-08-12T09:43:29.795Z,977.04
2016-08-12T09:44:29.764Z,977.1
2016-08-12T09:45:29.743Z,977.1
2016-08-12T09:46:29.706Z,977.06
2016-08-12T09:47:29.678Z,977.09
2016-08-12T09:48:29.652Z,977.09
2016-08-12T09:49:29.622Z,977.1
2016-08-12T09:50:29.593Z,977.11
2016-08-12T09:51:29.563Z,977.12
2016-08-12T09:52:29.535Z,977.12
2016-08-12T09:53:29.508Z,977.14
2016-08-12T09:54:29.480Z,977.16
2016-08-12T09:55:29.450Z,977.12
2016-08-12T09:56:29.421Z,977.07
2016-08-12T09:57:29.392Z,977.09
2016-08-12T09:58:29.363Z,977.09
2016-08-12T09:59:29.336Z,977.1
2016-08-12T10:00:29.308Z,977.09
2016-08-12T10:01:29.278Z,977.1
2016-08-12T10:02:29.249Z,977.11
2016-08-12T10:03:29.223Z,977.12
2016-08-12T10:04:29.191Z,977.11
2016-08-12T10:05:29.164Z,977.13
2016-08-12T10:06:29.137Z,977.14
2016-08-12T10:07:29.108Z,977.1
2016-08-12T10:08:29.079Z,977.12
2016-08-12T10:09:29.052Z,977.14
2016-08-12T10:10:29.030Z,977.1
2016-08-12T10:11:28.995Z,977.1
2016-08-12T10:12:28.965Z,977.1
2016-08-12T10:13:28.940Z,977.08
2016-08-12T10:14:28.909Z,977.09
2016-08-12T10:15:28.880Z,977.15
2016-08-12T10:16:28.863Z,977.13
2016-08-12T10:17:28.823Z,977.07
2016-08-12T10:18:28.796Z,977.08
2016-08-12T10:19:28.766Z,977.09
2016-08-12T10:20:28.740Z,977.04
2016-08-12T10:21:28.708Z,977.08
2016-08-12T10:22:28.681Z,977.05
2016-08-12T10:23:28.651Z,977.05
2016-08-12T10:24:28.622Z,977.01
2016-08-12T10:25:28.595Z,977.12
2016-08-12T10:26:28.565Z,977.08
2016-08-12T10:27:28.540Z,977.12
2016-08-12T10:28:28.509Z,977.13
2016-08-12T10:29:28.478Z,977.15
2016-08-12T10:30:28.458Z,977.13
2016-08-12T10:31:28.422Z,977.14
2016-08-12T10:32:28.393Z,977.15
2016-08-12T10:33:28.365Z,977.15
2016-08-12T10:34:28.334Z,977.14
2016-08-12T10:35:28.307Z,977.17
2016-08-12T10:36:28.279Z,977.16
2016-08-12T10:37:28.249Z,977.16
2016-08-12T10:38:28.223Z,977.12
2016-08-12T10:39:28.193Z,977.1
2016-08-12T10:40:28.167Z,977.18
2016-08-12T10:41:28.138Z,977.19
2016-08-12T10:42:28.110Z,977.2
2016-08-12T10:43:28.082Z,977.18
2016-08-12T10:44:28.055Z,977.15
2016-08-12T10:45:28.025Z,977.14
2016-08-12T10:46:27.997Z,977.14
2016-08-12T10:47:27.970Z,977.11
2016-08-12T10:48:27.943Z,977.15
2016-08-12T10:49:27.914Z,977.12
2016-08-12T10:51:27.861Z,977.11
2016-08-12T10:52:27.835Z,977.11
2016-08-12T10:53:27.810Z,977.11
2016-08-12T10:54:27.778Z,977.17
2016-08-12T10:55:27.750Z,977.15
2016-08-12T10:56:27.723Z,977.19
2016-08-12T10:57:27.696Z,977.2
2016-08-12T10:58:27.668Z,977.23
2016-08-12T10:59:27.642Z,977.2
2016-08-12T11:00:27.613Z,977.22
2016-08-12T11:01:27.585Z,977.24
2016-08-12T11:02:27.560Z,977.33
2016-08-12T11:03:27.535Z,977.56
2016-08-12T11:04:27.506Z,977.38
2016-08-12T11:06:27.454Z,977.35
2016-08-12T11:07:27.426Z,977.35
2016-08-12T11:08:27.402Z,977.35
2016-08-12T11:09:27.375Z,977.32
2016-08-12T11:10:27.349Z,977.28
2016-08-12T11:11:27.322Z,977.29
2016-08-12T11:12:27.296Z,977.26
2016-08-12T11:13:27.272Z,977.27
2016-08-12T11:14:27.244Z,977.22
2016-08-12T11:15:27.219Z,977.18
2016-08-12T11:16:27.194Z,977.23
2016-08-12T11:17:27.169Z,977.23
2016-08-12T11:18:27.143Z,977.3
2016-08-12T11:19:27.120Z,977.22
2016-08-12T11:21:27.066Z,977.21
2016-08-12T11:22:27.043Z,977.18
2016-08-12T11:23:27.018Z,977.22
2016-08-12T11:24:26.991Z,977.18
2016-08-12T11:25:26.964Z,977.18
2016-08-12T11:26:26.941Z,977.19
2016-08-12T11:27:26.920Z,977.22
2016-08-12T11:28:26.890Z,977.21
2016-08-12T11:29:26.865Z,977.24
2016-08-12T11:30:26.838Z,977.24
2016-08-12T11:31:26.814Z,977.26
2016-08-12T11:32:26.788Z,977.26
2016-08-12T11:33:26.764Z,977.27
2016-08-12T11:34:26.740Z,977.25
2016-08-12T11:35:26.712Z,977.18
2016-08-12T11:36:26.686Z,977.23
2016-08-12T11:37:26.661Z,977.2
2016-08-12T11:38:26.638Z,977.19
2016-08-12T11:39:26.613Z,977.18
2016-08-12T11:40:26.586Z,977.13
2016-08-12T11:41:26.561Z,977.09
2016-08-12T11:42:26.535Z,977.07
2016-08-12T11:43:26.509Z,977.13
2016-08-12T11:44:26.486Z,977.15
2016-08-12T11:45:26.460Z,977.15
2016-08-12T11:46:26.436Z,977.18
2016-08-12T11:47:26.408Z,977.19
2016-08-12T11:48:26.383Z,977.09
2016-08-12T11:49:26.359Z,977.07
2016-08-12T11:50:26.335Z,977.07
2016-08-12T11:51:26.307Z,977.01
2016-08-12T11:52:26.282Z,977.1
2016-08-12T11:53:26.264Z,977.1
2016-08-12T11:54:26.236Z,977.15
2016-08-12T11:55:26.209Z,977.14
2016-08-12T11:56:26.187Z,977.18
2016-08-12T11:57:26.159Z,977.15
2016-08-12T11:58:26.132Z,977.2
2016-08-12T11:59:26.109Z,977.16
2016-08-12T12:00:26.084Z,977.13
2016-08-12T12:01:26.065Z,977.09
2016-08-12T12:02:26.034Z,977.16
2016-08-12T12:03:26.009Z,977.13
2016-08-12T12:04:25.986Z,977.13
2016-08-12T12:05:25.961Z,977.1
2016-08-12T12:06:25.933Z,977.12
2016-08-12T12:07:25.909Z,977.09
2016-08-12T12:08:25.885Z,977.1
2016-08-12T12:09:25.857Z,977.09
2016-08-12T12:10:25.835Z,977.07
2016-08-12T12:11:25.808Z,977
2016-08-12T12:12:25.783Z,976.97
2016-08-12T12:13:25.764Z,976.99
2016-08-12T12:14:25.734Z,976.99
2016-08-12T12:15:25.707Z,977.01
2016-08-12T12:16:25.683Z,977.01
2016-08-12T12:17:25.656Z,976.97
2016-08-12T12:18:25.633Z,976.99
2016-08-12T12:19:25.611Z,977.01
2016-08-12T12:20:25.582Z,977.03
2016-08-12T12:21:25.556Z,977.01
2016-08-12T12:22:25.530Z,977.02
2016-08-12T12:23:25.502Z,976.99
2016-08-12T12:24:25.476Z,976.98
2016-08-12T12:25:25.452Z,976.99
2016-08-12T12:26:25.427Z,976.97
2016-08-12T12:27:25.403Z,976.91
2016-08-12T12:28:25.376Z,976.9
2016-08-12T12:29:25.349Z,976.93
2016-08-12T12:30:25.325Z,976.93
2016-08-12T12:31:25.297Z,976.94
2016-08-12T12:32:25.270Z,976.9
2016-08-12T12:33:25.245Z,976.96
2016-08-12T12:34:25.220Z,976.97
2016-08-12T12:35:25.194Z,977.02
2016-08-12T12:36:25.168Z,976.96
2016-08-12T12:37:25.140Z,976.95
2016-08-12T12:38:25.115Z,976.96
2016-08-12T12:39:25.089Z,977.04
2016-08-12T12:41:25.037Z,977.02
2016-08-12T12:42:25.010Z,976.98